Sekuruwe, South Africa
Current Conditions -  °F | °C
As of 2:00 PM on Saturday 25 Oct 2014 (Local Time) from FAPP Reporting Station
Few Clouds Few Clouds  
Wind Chill: 73°   Ceiling: Unl
Heat Index: 73°   Visibility: 6mi
Dew Point: 50°   Wind: 14mph
Humidity: 44%   Direction: 40°NE
Pressure: 30.18"   Gusts: NA
Location:  23.95°S, 28.93°E
Report Text: FAPP 251200Z 04012KT 9999 FEW040 23/10 Q1022 NOSIG
Loading
Personal Weather Stations






























Interactive Weather Map
Tropical Storm Tracking
New forecast layout! Learn more

10-Day Weather Forecast

Advertisements
Track Severe Weather on mobile